Portsmouth, NH

8:05 AM EDT on October 24, 2014 (GMT -0400)
Maplewood Avenue | Change Station
CLOSE
Current Station
Personal Weather Station
Location: Portsmouth, NH
Elevation: 60 ft
Nearby Weather Stations

Elev 60 ft 43.08 °N, 70.77 °W | Updated 17 seconds ago

Light Drizzle
Light Drizzle Mist
48.6 °F
Feels Like 49 °F
N
0.0
Wind Variable Wind from ENE
Gusts 1.0 mph

Today
High -- | Low -- °F
--% Chance of Precip.
Yesterday
High -- | Low -- °F
Precip. -- in
7:07 AM 5:46 PM
New Moon, 0% visible
Pressure 29.69 in
Visibility 4.0 miles
Clouds Mostly Cloudy 1100 ft
Overcast 2500 ft
Windchill 49 °F
Dew Point 44 °F
Humidity 84%
Rainfall 0.02 in
Snow Depth Not available.
UV 0 out of 12
Pollen .10 out of 12
Ozone Good
PM2.5 Good
Flu Activity Local Activity
METAR KPSM 241158Z 33010KT 4SM -DZ BR BKN011 OVC025 09/08 A2968 RMK AO2A VIS S 2 1/2 DZE1112RAB1125E1138DZB1140 SLP054 P0000 60002 70108 T00930081 10094 20091 50006

More Conditions Fewer Conditions

Pressure 29.69 in
Visibility 4.0 miles
Clouds Mostly Cloudy 1100 ft
Overcast 2500 ft
Windchill 49 °F
Dew Point 44 °F
Humidity 84%
Rainfall 0.02 in
Snow Depth Not available.
UV 0 out of 12
Pollen .10 out of 12
Ozone Good
PM2.5 Good
Flu Activity Local Activity
METAR KPSM 241158Z 33010KT 4SM -DZ BR BKN011 OVC025 09/08 A2968 RMK AO2A VIS S 2 1/2 DZE1112RAB1125E1138DZB1140 SLP054 P0000 60002 70108 T00930081 10094 20091 50006

More Conditions Fewer Conditions

10-Day Weather Forecast

Almanac

Astronomy

Oct. 24, 2014 Rise Set
Actual Time 7:07 AM EDT 5:46 PM EDT
Civil Twilight 6:38 AM EDT 6:15 PM EDT
Nautical Twilight 6:05 AM EDT 6:48 PM EDT
Astronomical Twilight 5:32 AM EDT 7:21 PM EDT
Moon 7:44 AM EDT 6:23 PM EDT
Length of Visible Light 11h 36m
Length of Day
10h 38m
Tomorrow will be 2m 44s shorter.
New Moon, 0% of the Moon is Illuminated
Today
New Moon
Oct 30
First Quarter
Nov 6
Full
Nov 14
Last Quarter
Nov 22
New

Today's Extremes

State Highs State Lows

Community

WunderPhotos

Upload Photos

1,764,528 photos uploaded!

Nearby

Air Quality

  Air Quality AQ Index Pollutant
Yesterday Good
OZONE
Yesterday Good
PM2.5
Current Good
OZONE
Current Good
PM2.5
Friday Good
PM2.5
Friday Good
OZONE

Snow Depth

Station Depth Elevation
No new snow has been reported.

Earthquake Activity

City Distance Mag. Time & Date
No recent earthquake activity has been reported nearby.
Minimum magnitude displayed is 2.5.

Coastal Water Temperatures

Place Temperature
Wells, ME 48.9 °F
Portland, ME 54.0 °F

Nearby Weather Stations